Terminal Aerodrome Forecast
Issued by NWS Austin/San Antonio, TX

Home | Current Version | Previous Version | Text Only | Print | Product List | Glossary On
Versions: 1 2 3 4 5 6 7 8 9 10 11 12 13 14 15 16 17 18 19 20 21 22
000
FTUS44 KEWX 161100
TAFAUS
TAF
KAUS 161122Z 1612/1718 35004KT P6SM FEW035 SCT200
     FM161500 07008KT P6SM BKN040
      TEMPO 1620/1624 VRB20G30KT 5SM TSRA BKN030CB
     FM170600 15005KT P6SM VCSH BKN025
     FM171200 15005KT 5SM -SHRA BKN025=

USA.gov is the U.S. government's official web portal to all federal, state and local government web resources and services.